METAR Data
IDs: Format: Raw Decoded Include TAF

Data at: 1005 UTC 18 Jan 2022

KALS 180952Z AUTO 00000KT 10SM CLR M07/M14 A3000 RMK AO2 SLP154 T10721139
KALS 180852Z AUTO 09004KT 10SM CLR M10/M16 A3001 RMK AO2 SLP165 T11001156 55004
KALS 180752Z AUTO 18003KT 10SM CLR M10/M16 A3001 RMK AO2 SLP167 T11001161
KALS 180652Z AUTO 29004KT 10SM CLR M07/M15 A3002 RMK AO2 SLP168 T10671150 400891183
KALS 180552Z AUTO 15005KT 10SM CLR M06/M16 A3002 RMK AO2 SLP177 T10611161 10050 21078 58002
KALS 180452Z AUTO 11004KT 10SM CLR M06/M17 A3003 RMK AO2 SLP189 T10611167
KALS 180352Z AUTO 07003KT 10SM CLR M04/M16 A3003 RMK AO2 SLP211 T10391156
KALS 180252Z AUTO 00000KT 10SM CLR M06/M17 A3003 RMK AO2 SLP235 T10561167 53004
KALS 180152Z AUTO 24006KT 10SM CLR M02/M16 A3002 RMK AO2 SLP226 T10221161
KALS 180052Z AUTO 21004KT 10SM CLR 01/M18 A3002 RMK AO2 SLP214 T00111178
KALS 172352Z AUTO 20004KT 10SM CLR 05/M18 A3002 RMK AO2 SLP192 T00501178 10089 20022 56007
KALS 172252Z AUTO 18003KT 10SM CLR 07/M20 A3003 RMK AO2 SLP198 T00721200
KALS 172152Z AUTO 20003KT 10SM CLR 08/M19 A3003 RMK AO2 SLP197 T00831194
KALS 172052Z AUTO 25004KT 10SM CLR 08/M19 A3005 RMK AO2 SLP184 T00831189 56032
KALS 171952Z AUTO VRB03KT 10SM CLR 07/M17 A3008 RMK AO2 SLP205 T00721172
KALS 171852Z AUTO VRB03KT 10SM CLR 05/M16 A3011 RMK AO2 SLP223 T00501161
KALS 171752Z AUTO 04004KT 10SM CLR 03/M16 A3016 RMK AO2 SLP245 T00281161 10028 21178 58001
KALS 171652Z AUTO 00000KT 10SM CLR M01/M14 A3018 RMK AO2 SLP258 T10111139
KALS 171552Z AUTO 00000KT 10SM CLR M09/M16 A3018 RMK AO2 SLP284 T10941156
KALS 171452Z AUTO 08004KT 10SM CLR M14/M18 A3017 RMK AO2 SLP283 T11441183 50002
KALS 171352Z AUTO 25004KT 10SM CLR M17/M19 A3017 RMK AO2 SLP280 T11671194
KALS 171252Z AUTO 24004KT 10SM CLR M17/M21 A3016 RMK AO2 SLP273 T11721206
KALS 171152Z AUTO 12003KT 10SM CLR M14/M18 A3016 RMK AO2 SLP246 T11391178 11100 21183 58007
KALS 171052Z AUTO 00000KT 10SM CLR M17/M21 A3017 RMK AO2 SLP253 T11721206
KALS 170952Z AUTO 05004KT 10SM CLR M17/M21 A3018 RMK AO2 SLP260 T11721206
KALS 170852Z AUTO 29003KT 10SM CLR M12/M18 A3019 RMK AO2 SLP246 T11221178 58004
KALS 170752Z AUTO 25007KT 10SM CLR M13/M17 A3019 RMK AO2 SLP258 T11331172
KALS 170652Z AUTO 31003KT 10SM CLR M13/M18 A3020 RMK AO2 SLP268 T11281178 400671200
KALS 170552Z AUTO 00000KT 10SM CLR M12/M18 A3020 RMK AO2 SLP272 T11221183 10028 21128 51003
KALS 170452Z AUTO 00000KT 10SM CLR M10/M18 A3020 RMK AO2 SLP279 T11001178
KALS 170352Z AUTO 13004KT 10SM CLR M10/M18 A3020 RMK AO2 SLP292 T11001178
KALS 170252Z AUTO VRB03KT 10SM CLR M06/M16 A3019 RMK AO2 SLP296 T10611161 51007
KALS 170152Z AUTO 00000KT 10SM CLR M03/M17 A3019 RMK AO2 SLP295 T10281167
KALS 170052Z AUTO 20003KT 10SM CLR M01/M17 A3017 RMK AO2 SLP284 T10061172
KALS 162352Z AUTO 21005KT 10SM CLR 03/M18 A3016 RMK AO2 SLP266 T00331183 10067 21022 56003
KALS 162252Z AUTO 22005KT 10SM CLR 06/M18 A3017 RMK AO2 SLP249 T00561183